Terminal Aerodrome Forecast
Issued by NWS Sioux Falls, SD

Home | Current Version | Previous Version | Text Only | Print | Product List | Glossary Off
Versions: 1 2 3 4 5 6 7 8 9 10 11 12

328
FTUS43 KFSD 072320
TAFFSD
TAF
KFSD 072320Z 0800/0824 29018G25KT P6SM SCT030
     FM080300 30017G24KT P6SM BKN030
     FM082200 31015G22KT P6SM SCT030=

USA.gov is the U.S. government's official web portal to all federal, state and local government web resources and services.